Allred, Tennessee
Current Conditions -  °F | °C
As of 2:53 AM on Saturday 29 Nov 2014 (Local Time) from KCSV Reporting Station
Clear Clear  
Wind Chill:   Ceiling: Unl
Heat Index:   Visibility: 10mi
Dew Point: -9°   Wind: 7mph
Humidity: 39%   Direction: 210°SSW
Pressure: 30.15"   Gusts: NA
Location:  36.33°N, 85.19°W
Report Text: KCSV 290853Z AUTO 21006KT 10SM CLR 04/M09 A3015 RMK AO2 SLP215 T00391089 53002
Loading
Personal Weather Stations






























Interactive Weather Map New forecast layout! Learn more

10-Day Weather Forecast

Advertisements
Track Severe Weather on mobile